sensor_id;sensor_type;location;lat;lon;timestamp;P1;durP1;ratioP1;P2;durP2;ratioP2
34184;SDS011;20454;48.100;11.776;2023-03-19T16:35:44;106.00;;;45.45;;
34184;SDS011;20454;48.100;11.776;2023-03-19T16:38:14;98.55;;;43.53;;
34184;SDS011;20454;48.100;11.776;2023-03-19T16:40:49;88.47;;;41.75;;
34184;SDS011;20454;48.100;11.776;2023-03-19T16:43:45;85.50;;;40.20;;
34184;SDS011;20454;48.100;11.776;2023-03-19T16:46:11;61.15;;;36.55;;
34184;SDS011;20454;48.100;11.776;2023-03-19T16:48:40;78.97;;;39.75;;
34184;SDS011;20454;48.100;11.776;2023-03-19T16:51:16;75.50;;;40.13;;
34184;SDS011;20454;48.100;11.776;2023-03-19T16:53:45;116.90;;;49.35;;
34184;SDS011;20454;48.100;11.776;2023-03-19T16:56:12;119.75;;;50.78;;
34184;SDS011;20454;48.100;11.776;2023-03-19T16:58:43;132.00;;;55.30;;
34184;SDS011;20454;48.100;11.776;2023-03-19T17:03:49;74.28;;;38.28;;
34184;SDS011;20454;48.100;11.776;2023-03-19T17:06:16;49.70;;;34.13;;
34184;SDS011;20454;48.100;11.776;2023-03-19T17:08:43;35.53;;;29.00;;
34184;SDS011;20454;48.100;11.776;2023-03-19T17:11:27;44.33;;;29.80;;
34184;SDS011;20454;48.100;11.776;2023-03-19T17:14:00;41.35;;;29.38;;
34184;SDS011;20454;48.100;11.776;2023-03-19T17:16:30;45.00;;;30.25;;
34184;SDS011;20454;48.100;11.776;2023-03-19T17:18:56;31.05;;;25.30;;
34184;SDS011;20454;48.100;11.776;2023-03-19T17:21:26;18.88;;;17.25;;
34184;SDS011;20454;48.100;11.776;2023-03-19T17:23:57;22.38;;;20.42;;
34184;SDS011;20454;48.100;11.776;2023-03-19T17:26:44;24.90;;;22.52;;
34184;SDS011;20454;48.100;11.776;2023-03-19T17:29:10;29.67;;;25.38;;
34184;SDS011;20454;48.100;11.776;2023-03-19T17:31:36;35.45;;;27.10;;
34184;SDS011;20454;48.100;11.776;2023-03-19T17:34:11;52.17;;;32.35;;
34184;SDS011;20454;48.100;11.776;2023-03-19T17:36:45;48.90;;;31.52;;
34184;SDS011;20454;48.100;11.776;2023-03-19T17:39:39;17.20;;;15.75;;
34184;SDS011;20454;48.100;11.776;2023-03-19T17:42:19;34.20;;;25.20;;
34184;SDS011;20454;48.100;11.776;2023-03-19T17:44:47;32.97;;;24.00;;
34184;SDS011;20454;48.100;11.776;2023-03-19T17:47:13;21.95;;;20.23;;
34184;SDS011;20454;48.100;11.776;2023-03-19T17:49:41;27.02;;;24.63;;
34184;SDS011;20454;48.100;11.776;2023-03-19T17:52:16;21.98;;;20.42;;
34184;SDS011;20454;48.100;11.776;2023-03-19T17:54:43;24.92;;;22.63;;
34184;SDS011;20454;48.100;11.776;2023-03-19T17:57:10;11.00;;;10.48;;
34184;SDS011;20454;48.100;11.776;2023-03-19T17:59:38;12.88;;;12.23;;
34184;SDS011;20454;48.100;11.776;2023-03-19T20:25:43;1.30;;;1.30;;
34184;SDS011;20454;48.100;11.776;2023-03-19T20:28:20;2.55;;;2.55;;
34184;SDS011;20454;48.100;11.776;2023-03-19T20:30:50;0.10;;;0.10;;
34184;SDS011;20454;48.100;11.776;2023-03-19T20:33:20;7.28;;;7.07;;
34184;SDS011;20454;48.100;11.776;2023-03-19T21:08:00;0.30;;;0.30;;
34184;SDS011;20454;48.100;11.776;2023-03-19T21:27:50;17.20;;;16.80;;
34184;SDS011;20454;48.100;11.776;2023-03-19T21:40:13;2.95;;;2.92;;
34184;SDS011;20454;48.100;11.776;2023-03-19T21:52:42;0.20;;;0.20;;
34184;SDS011;20454;48.100;11.776;2023-03-19T22:07:41;0.30;;;0.30;;
34184;SDS011;20454;48.100;11.776;2023-03-19T22:29:39;0.30;;;0.30;;
34184;SDS011;20454;48.100;11.776;2023-03-19T22:47:21;10.00;;;9.73;;
34184;SDS011;20454;48.100;11.776;2023-03-19T23:09:29;0.30;;;0.30;;
34184;SDS011;20454;48.100;11.776;2023-03-19T23:11:57;2.90;;;2.90;;
34184;SDS011;20454;48.100;11.776;2023-03-19T23:14:24;1.98;;;1.98;;
34184;SDS011;20454;48.100;11.776;2023-03-19T23:16:51;2.17;;;2.17;;
34184;SDS011;20454;48.100;11.776;2023-03-19T23:19:20;2.55;;;2.55;;
34184;SDS011;20454;48.100;11.776;2023-03-19T23:21:55;2.45;;;2.45;;
